createdAt,value
2018-08-24T00:01:14.802Z,24.00
2018-08-24T00:06:17.954Z,23.90
2018-08-24T00:11:21.103Z,23.90
2018-08-24T00:16:29.773Z,23.90
2018-08-24T00:21:32.897Z,23.90
2018-08-24T00:26:36.079Z,23.90
2018-08-24T00:31:45.962Z,23.80
2018-08-24T00:36:49.076Z,23.80
2018-08-24T00:41:52.252Z,23.80
2018-08-24T00:46:55.401Z,23.80
2018-08-24T00:51:58.551Z,23.70
2018-08-24T00:57:01.721Z,23.70
2018-08-24T01:02:04.906Z,23.70
2018-08-24T01:07:13.442Z,23.60
2018-08-24T01:12:17.345Z,23.60
2018-08-24T01:17:26.055Z,23.60
2018-08-24T01:22:29.211Z,23.60
2018-08-24T01:27:32.375Z,23.50
2018-08-24T01:32:35.514Z,23.50
2018-08-24T01:37:38.751Z,23.50
2018-08-24T01:42:41.842Z,23.40
2018-08-24T01:47:44.926Z,23.30
2018-08-24T01:52:48.055Z,23.30
2018-08-24T01:57:51.148Z,23.30
2018-08-24T02:02:54.263Z,23.30
2018-08-24T02:07:57.363Z,23.30
2018-08-24T02:13:06.159Z,23.20
2018-08-24T02:18:14.836Z,23.20
2018-08-24T02:23:17.973Z,23.20
2018-08-24T02:28:21.083Z,23.10
2018-08-24T02:33:24.195Z,23.10
2018-08-24T02:38:27.300Z,23.10
2018-08-24T02:43:30.419Z,23.10
2018-08-24T02:48:33.551Z,23.00
2018-08-24T02:53:36.799Z,23.00
2018-08-24T02:58:39.926Z,22.90
2018-08-24T03:03:43.019Z,22.90
2018-08-24T03:08:46.103Z,22.80
2018-08-24T03:13:49.218Z,22.90
2018-08-24T03:18:52.323Z,22.80
2018-08-24T03:23:55.448Z,22.80
2018-08-24T03:28:58.551Z,22.80
2018-08-24T03:34:01.661Z,22.70
2018-08-24T03:39:07.547Z,22.70
2018-08-24T03:44:10.968Z,22.70
2018-08-24T03:49:14.056Z,22.70
2018-08-24T03:54:20.999Z,22.60
2018-08-24T03:59:24.811Z,22.70
2018-08-24T04:04:27.940Z,22.60
2018-08-24T04:09:31.048Z,22.60
2018-08-24T04:14:34.163Z,22.60
2018-08-24T04:19:37.548Z,22.60
2018-08-24T04:24:40.495Z,22.60
2018-08-24T04:29:43.624Z,22.60
2018-08-24T04:34:46.723Z,22.70
2018-08-24T04:39:49.838Z,22.70
2018-08-24T04:44:52.951Z,22.60
2018-08-24T04:49:56.186Z,22.70
2018-08-24T04:54:59.300Z,22.70
2018-08-24T05:00:02.411Z,22.70
2018-08-24T05:05:07.043Z,22.70
2018-08-24T05:10:10.137Z,22.70
2018-08-24T05:15:13.303Z,22.60
2018-08-24T05:20:16.398Z,22.60
2018-08-24T05:25:19.520Z,22.40
2018-08-24T05:30:22.619Z,22.30
2018-08-24T05:35:25.731Z,22.20
2018-08-24T05:40:28.860Z,22.10
2018-08-24T05:45:32.194Z,22.00
2018-08-24T05:50:35.291Z,22.10
2018-08-24T05:55:39.292Z,22.10
2018-08-24T06:00:44.916Z,22.10
2018-08-24T06:05:53.564Z,22.00
2018-08-24T06:10:56.654Z,22.00
2018-08-24T06:15:59.817Z,22.00
2018-08-24T06:21:03.545Z,22.00
2018-08-24T06:26:06.824Z,22.00
2018-08-24T06:31:09.902Z,22.10
2018-08-24T06:36:12.991Z,22.10
2018-08-24T06:41:16.075Z,22.10
2018-08-24T06:46:19.190Z,22.10
2018-08-24T06:51:22.300Z,22.20
2018-08-24T06:56:25.631Z,22.20
2018-08-24T07:01:28.719Z,22.30
2018-08-24T07:06:31.815Z,22.40
2018-08-24T07:11:34.915Z,22.50
2018-08-24T07:16:38.095Z,22.50
2018-08-24T07:21:41.195Z,22.60
2018-08-24T07:26:44.284Z,22.60
2018-08-24T07:31:47.386Z,22.70
2018-08-24T07:36:50.698Z,22.70
2018-08-24T07:41:53.880Z,22.70
2018-08-24T07:46:56.911Z,22.90
2018-08-24T07:52:01.951Z,22.90
2018-08-24T07:57:05.122Z,23.00
2018-08-24T08:02:08.211Z,23.10
2018-08-24T08:07:11.482Z,23.20
2018-08-24T08:12:14.591Z,23.20
2018-08-24T08:17:17.674Z,23.20
2018-08-24T08:22:20.756Z,23.30
2018-08-24T08:27:23.863Z,23.30
2018-08-24T08:32:27.627Z,23.40
2018-08-24T08:37:30.727Z,23.40
2018-08-24T08:42:33.891Z,23.50
2018-08-24T08:47:37.004Z,23.50
2018-08-24T08:52:40.120Z,23.50
2018-08-24T08:57:43.223Z,23.50
2018-08-24T09:02:46.312Z,23.60
2018-08-24T09:07:49.606Z,23.60
2018-08-24T09:12:52.735Z,23.70
2018-08-24T09:18:01.264Z,23.80
2018-08-24T09:23:09.689Z,23.80
2018-08-24T09:28:22.993Z,23.90
2018-08-24T09:33:26.091Z,23.90
2018-08-24T09:38:29.182Z,23.90
2018-08-24T09:43:37.718Z,24.00
2018-08-24T09:48:46.214Z,24.10
2018-08-24T09:53:54.651Z,24.20
2018-08-24T09:58:58.041Z,24.20
2018-08-24T10:04:06.712Z,24.30
2018-08-24T10:09:11.287Z,24.40
2018-08-24T10:14:14.392Z,24.50
2018-08-24T10:19:17.502Z,24.60
2018-08-24T10:24:20.583Z,24.70
2018-08-24T10:29:23.800Z,24.80
2018-08-24T10:34:26.783Z,24.70
2018-08-24T10:39:29.891Z,24.70
2018-08-24T10:44:32.975Z,24.60
2018-08-24T10:49:36.078Z,24.60
2018-08-24T10:54:39.171Z,24.60
2018-08-24T10:59:42.315Z,24.60
2018-08-24T11:04:45.419Z,24.60
2018-08-24T11:09:48.536Z,24.60
2018-08-24T11:14:51.655Z,24.50
2018-08-24T11:19:54.775Z,24.40
2018-08-24T11:24:57.856Z,24.40
2018-08-24T11:30:00.939Z,24.30
2018-08-24T11:35:04.011Z,24.30
2018-08-24T11:40:07.222Z,24.30
2018-08-24T11:45:10.341Z,24.30
2018-08-24T11:50:13.447Z,24.40
2018-08-24T11:55:16.572Z,24.40
2018-08-24T12:00:23.023Z,24.50
2018-08-24T12:05:26.135Z,24.60
2018-08-24T12:10:35.946Z,24.70
2018-08-24T12:15:39.080Z,24.90
2018-08-24T12:20:42.169Z,25.20
2018-08-24T12:25:45.272Z,25.50
2018-08-24T12:30:48.391Z,25.80
2018-08-24T12:35:51.507Z,26.00
2018-08-24T12:40:54.624Z,26.10
2018-08-24T12:45:57.711Z,26.30
2018-08-24T12:51:00.780Z,26.30
2018-08-24T12:56:03.898Z,26.20
2018-08-24T13:01:07.356Z,26.10
2018-08-24T13:06:10.800Z,26.00
2018-08-24T13:11:14.523Z,26.00
2018-08-24T13:16:17.635Z,26.10
2018-08-24T13:21:20.775Z,26.20
2018-08-24T13:26:23.848Z,26.30
2018-08-24T13:31:26.959Z,26.40
2018-08-24T13:36:30.066Z,26.50
2018-08-24T13:41:33.173Z,26.60
2018-08-24T13:46:36.278Z,26.70
2018-08-24T13:51:39.387Z,26.90
2018-08-24T13:56:42.489Z,27.10
2018-08-24T14:01:45.593Z,27.20
2018-08-24T14:06:49.699Z,27.30
2018-08-24T14:11:52.795Z,27.30
2018-08-24T14:16:55.899Z,27.30
2018-08-24T14:21:59.000Z,27.20
2018-08-24T14:27:02.135Z,27.10
2018-08-24T14:32:05.282Z,26.90
2018-08-24T14:37:08.638Z,26.80
2018-08-24T14:42:11.723Z,26.70
2018-08-24T14:47:14.874Z,26.50
2018-08-24T14:52:17.981Z,26.40
2018-08-24T14:57:21.809Z,26.20
2018-08-24T15:02:24.980Z,25.90
2018-08-24T15:07:28.075Z,25.60
2018-08-24T15:12:31.164Z,25.40
2018-08-24T15:17:34.251Z,25.20
2018-08-24T15:22:37.331Z,25.00
2018-08-24T15:27:40.430Z,24.90
2018-08-24T15:32:43.538Z,24.90
2018-08-24T15:37:46.661Z,24.90
2018-08-24T15:42:49.780Z,24.90
2018-08-24T15:47:52.866Z,24.90
2018-08-24T15:52:55.958Z,24.90
2018-08-24T15:57:59.077Z,24.90
2018-08-24T16:03:02.159Z,24.90
2018-08-24T16:08:05.486Z,24.90
2018-08-24T16:13:08.603Z,24.90
2018-08-24T16:18:17.219Z,24.90
2018-08-24T16:23:20.467Z,24.90
2018-08-24T16:28:23.582Z,24.90
2018-08-24T16:33:26.663Z,24.80
2018-08-24T16:38:29.758Z,24.80
2018-08-24T16:43:32.856Z,24.70
2018-08-24T16:48:35.951Z,24.60
2018-08-24T16:53:39.064Z,24.50
2018-08-24T16:58:42.173Z,24.50
2018-08-24T17:03:45.334Z,24.40
2018-08-24T17:08:48.399Z,24.40
2018-08-24T17:13:51.540Z,24.30
2018-08-24T17:18:54.639Z,24.20
2018-08-24T17:23:57.768Z,24.10
2018-08-24T17:29:00.884Z,24.10
2018-08-24T17:34:04.015Z,24.00
2018-08-24T17:39:09.327Z,23.90
2018-08-24T17:44:12.438Z,23.90
2018-08-24T17:49:15.551Z,23.80
2018-08-24T17:54:18.707Z,23.70
2018-08-24T17:59:21.751Z,23.70
2018-08-24T18:04:24.860Z,23.60
2018-08-24T18:09:28.028Z,23.50
2018-08-24T18:14:31.123Z,23.40
2018-08-24T18:19:34.331Z,23.30
2018-08-24T18:24:37.469Z,23.20
2018-08-24T18:29:40.530Z,23.20
2018-08-24T18:34:43.657Z,23.10
2018-08-24T18:39:46.731Z,23.00
2018-08-24T18:44:49.852Z,23.00
2018-08-24T18:49:52.967Z,22.90
2018-08-24T18:54:56.060Z,22.80
2018-08-24T18:59:59.184Z,22.70
2018-08-24T19:05:02.316Z,22.70
2018-08-24T19:10:05.395Z,22.60
2018-08-24T19:15:08.497Z,22.60
2018-08-24T19:20:17.027Z,22.50
2018-08-24T19:25:20.406Z,22.50
2018-08-24T19:30:29.067Z,22.40
2018-08-24T19:35:32.256Z,22.30
2018-08-24T19:40:40.755Z,22.20
2018-08-24T19:45:43.874Z,22.20
2018-08-24T19:50:46.980Z,22.00
2018-08-24T19:55:50.082Z,22.00
2018-08-24T20:00:53.258Z,21.90
2018-08-24T20:06:01.784Z,21.90
2018-08-24T20:11:04.891Z,21.90
2018-08-24T20:16:13.502Z,21.80
2018-08-24T20:21:16.591Z,21.80
2018-08-24T20:26:19.682Z,21.70
2018-08-24T20:31:22.787Z,21.60
2018-08-24T20:36:25.907Z,21.60
2018-08-24T20:41:29.016Z,21.50
2018-08-24T20:46:32.087Z,21.40
2018-08-24T20:51:35.179Z,21.30
2018-08-24T20:56:38.338Z,21.30
2018-08-24T21:01:41.415Z,21.20
2018-08-24T21:06:45.356Z,21.10
2018-08-24T21:11:48.459Z,21.10
2018-08-24T21:16:51.679Z,21.00
2018-08-24T21:21:54.680Z,21.00
2018-08-24T21:26:57.812Z,20.90
2018-08-24T21:32:00.906Z,20.90
2018-08-24T21:37:04.150Z,20.80
2018-08-24T21:42:07.347Z,20.80
2018-08-24T21:47:10.339Z,20.70
2018-08-24T21:52:13.539Z,20.70
2018-08-24T21:57:16.621Z,20.60
2018-08-24T22:02:19.823Z,20.60
2018-08-24T22:07:22.950Z,20.50
2018-08-24T22:12:26.039Z,20.40
2018-08-24T22:17:29.129Z,20.40
2018-08-24T22:22:32.226Z,20.30
2018-08-24T22:27:35.323Z,20.30
2018-08-24T22:37:48.075Z,20.20
2018-08-24T22:42:51.170Z,20.10
2018-08-24T22:47:54.364Z,20.00
2018-08-24T22:52:57.467Z,20.00
2018-08-24T22:58:00.552Z,19.90
2018-08-24T23:03:03.667Z,19.90
2018-08-24T23:08:06.899Z,19.80
2018-08-24T23:13:10.108Z,19.80
2018-08-24T23:18:13.203Z,19.70
2018-08-24T23:23:16.287Z,19.70
2018-08-24T23:28:19.387Z,19.60
2018-08-24T23:33:22.458Z,19.60
2018-08-24T23:38:25.571Z,19.50
2018-08-24T23:43:28.784Z,19.40
2018-08-24T23:48:31.867Z,19.40
2018-08-24T23:53:35.000Z,19.40
2018-08-24T23:58:38.251Z,19.30
